Antonia, Missouri
Current Conditions -  °F | °C
As of 8:53 AM on Friday 19 Dec 2014 (Local Time) from KCPS Reporting Station
Haze Haze  
Wind Chill: 26°   Ceiling: Unl
Heat Index: 32°   Visibility: 6mi
Dew Point: 27°   Wind: 6mph
Humidity: 82%   Direction: 80°E
Pressure: 30.32"   Gusts: NA
Location:  38.3874°N, 90.4319°W
Report Text: KCPS 191453Z 08005KT 6SM HZ CLR 00/M03 A3032 RMK AO2 SLP272 T00001028 50015
Loading
Personal Weather Stations






























Interactive Weather Map New forecast layout! Learn more

10-Day Weather Forecast

Advertisements
Track Severe Weather on mobile